createdAt,value
2023-01-27T00:01:10.194Z,101356.78
2023-01-27T00:05:16.346Z,101356.22
2023-01-27T00:09:20.770Z,101358.47
2023-01-27T00:13:28.714Z,101345.63
2023-01-27T00:17:32.860Z,101343.91
2023-01-27T00:21:54.458Z,101337.06
2023-01-27T00:26:00.911Z,101341.91
2023-01-27T00:30:06.710Z,101333.84
2023-01-27T00:34:10.746Z,101326.44
2023-01-27T00:38:16.424Z,101332.97
2023-01-27T00:42:19.646Z,101320.44
2023-01-27T00:46:26.215Z,101004.53
2023-01-27T00:50:30.815Z,101061.72
2023-01-27T00:54:35.147Z,101115.84
2023-01-27T00:58:39.987Z,101135.81
2023-01-27T01:02:45.778Z,101146.31
2023-01-27T01:06:50.031Z,101159.41
2023-01-27T01:10:54.729Z,101164.97
2023-01-27T01:14:58.823Z,101176.50
2023-01-27T01:19:04.466Z,101178.19
2023-01-27T01:23:08.347Z,101339.75
2023-01-27T01:27:13.345Z,101336.75
2023-01-27T01:31:19.770Z,101323.75
2023-01-27T01:35:26.751Z,101323.00
2023-01-27T01:39:31.169Z,101318.91
2023-01-27T01:43:35.660Z,101327.72
2023-01-27T01:47:40.159Z,101327.72
2023-01-27T01:51:49.724Z,101321.63
2023-01-27T01:55:54.218Z,101322.31
2023-01-27T02:00:03.379Z,101320.53
2023-01-27T02:04:21.269Z,101326.97
2023-01-27T02:08:31.194Z,101331.69
2023-01-27T02:12:35.504Z,101340.81
2023-01-27T02:16:40.166Z,101341.22
2023-01-27T02:20:46.993Z,101342.22
2023-01-27T02:25:01.223Z,101347.94
2023-01-27T02:29:09.048Z,101346.22
2023-01-27T02:33:14.096Z,101338.22
2023-01-27T02:37:19.069Z,101344.81
2023-01-27T02:41:29.671Z,101351.63
2023-01-27T02:45:35.183Z,101350.63
2023-01-27T02:49:39.019Z,101348.22
2023-01-27T02:53:44.387Z,101346.53
2023-01-27T02:57:48.930Z,101351.94
2023-01-27T03:02:14.832Z,101350.22
2023-01-27T03:06:20.230Z,101346.53
2023-01-27T03:10:25.275Z,101352.94
2023-01-27T03:14:46.316Z,101357.19
2023-01-27T03:18:56.901Z,101363.59
2023-01-27T03:23:01.116Z,101359.53
2023-01-27T03:27:04.939Z,101363.22
2023-01-27T03:31:28.854Z,101360.94
2023-01-27T03:35:48.667Z,101376.50
2023-01-27T03:40:14.496Z,101376.50
2023-01-27T03:44:35.667Z,101384.63
2023-01-27T03:48:40.875Z,101381.38
2023-01-27T03:53:03.379Z,101385.22
2023-01-27T03:57:07.796Z,101413.31
2023-01-27T04:01:16.767Z,101407.91
2023-01-27T04:05:38.370Z,101419.22
2023-01-27T04:09:44.782Z,101423.94
2023-01-27T04:13:48.769Z,101422.53
2023-01-27T04:17:53.244Z,101416.09
2023-01-27T04:21:58.315Z,101410.13
2023-01-27T04:26:04.180Z,101410.81
2023-01-27T04:30:11.556Z,101417.25
2023-01-27T04:34:16.133Z,101417.41
2023-01-27T04:38:20.138Z,101413.69
2023-01-27T04:42:25.630Z,101413.41
2023-01-27T04:46:29.964Z,101423.53
2023-01-27T04:50:33.420Z,101424.81
2023-01-27T04:54:37.569Z,101438.44
2023-01-27T04:58:43.287Z,101443.31
2023-01-27T05:02:47.684Z,101437.91
2023-01-27T05:06:51.958Z,101442.91
2023-01-27T05:10:56.203Z,101451.00
2023-01-27T05:15:00.923Z,101446.88
2023-01-27T05:19:05.336Z,101442.47
2023-01-27T05:23:26.767Z,101450.72
2023-01-27T05:27:30.483Z,101452.84
2023-01-27T05:31:35.295Z,101456.13
2023-01-27T05:35:39.157Z,101472.06
2023-01-27T05:39:42.444Z,101463.34
2023-01-27T05:43:48.005Z,101456.69
2023-01-27T05:47:53.873Z,101460.50
2023-01-27T05:51:57.076Z,101469.16
2023-01-27T05:56:01.200Z,101475.53
2023-01-27T06:00:06.333Z,101469.44
2023-01-27T06:04:12.692Z,101471.47
2023-01-27T06:08:16.555Z,101478.84
2023-01-27T06:12:20.861Z,101480.72
2023-01-27T06:16:25.274Z,101491.09
2023-01-27T06:20:31.287Z,101484.97
2023-01-27T06:24:35.683Z,101482.44
2023-01-27T06:28:40.370Z,101478.16
2023-01-27T06:32:43.583Z,101490.25
2023-01-27T06:36:49.056Z,101492.53
2023-01-27T06:40:53.402Z,101490.53
2023-01-27T06:44:57.457Z,101489.97
2023-01-27T06:49:01.748Z,101486.00
2023-01-27T06:53:08.154Z,101506.34
2023-01-27T06:57:13.183Z,101516.03
2023-01-27T07:01:19.555Z,101507.78
2023-01-27T07:05:23.122Z,101502.25
2023-01-27T07:09:28.511Z,101508.22
2023-01-27T07:13:32.945Z,101523.44
2023-01-27T07:17:37.466Z,101515.59
2023-01-27T07:21:41.743Z,101515.03
2023-01-27T07:25:46.339Z,101518.47
2023-01-27T07:29:50.287Z,101508.50
2023-01-27T07:33:54.179Z,101509.91
2023-01-27T07:37:58.201Z,101510.63
2023-01-27T07:42:02.663Z,101515.75
2023-01-27T07:46:05.748Z,101517.06
2023-01-27T07:50:10.234Z,101512.63
2023-01-27T07:54:13.709Z,101523.31
2023-01-27T07:58:18.274Z,101523.00
2023-01-27T08:02:21.294Z,101520.91
2023-01-27T08:06:24.357Z,101535.41
2023-01-27T08:10:27.885Z,101529.59
2023-01-27T08:14:32.273Z,101535.81
2023-01-27T08:18:35.713Z,101532.69
2023-01-27T08:22:38.710Z,101535.53
2023-01-27T08:26:41.800Z,101537.38
2023-01-27T08:30:46.525Z,101531.69
2023-01-27T08:34:51.263Z,101513.56
2023-01-27T08:38:54.774Z,101525.97
2023-01-27T08:42:57.931Z,101531.50
2023-01-27T08:47:02.348Z,101529.22
2023-01-27T08:51:06.520Z,101535.50
2023-01-27T08:55:09.786Z,101539.06
2023-01-27T08:59:12.962Z,101545.03
2023-01-27T09:03:18.431Z,101542.63
2023-01-27T09:07:21.545Z,101548.00
2023-01-27T09:11:24.702Z,101564.53
2023-01-27T09:15:28.045Z,101571.38
2023-01-27T09:19:32.605Z,101563.66
2023-01-27T09:23:35.805Z,101577.34
2023-01-27T09:27:40.167Z,101581.03
2023-01-27T09:31:43.632Z,101589.31
2023-01-27T09:35:53.057Z,101591.28
2023-01-27T09:40:00.271Z,101590.72
2023-01-27T09:44:23.168Z,101598.84
2023-01-27T09:48:43.444Z,101594.44
2023-01-27T09:53:02.610Z,101595.53
2023-01-27T09:57:15.103Z,101604.69
2023-01-27T10:01:29.574Z,101601.81
2023-01-27T10:05:43.343Z,101614.91
2023-01-27T10:10:02.588Z,101605.47
2023-01-27T10:14:18.644Z,101611.19
2023-01-27T10:18:36.716Z,101613.72
2023-01-27T10:22:48.430Z,101607.72
2023-01-27T10:27:00.349Z,101610.72
2023-01-27T10:31:09.831Z,101605.72
2023-01-27T10:35:18.444Z,101603.97
2023-01-27T10:39:30.141Z,101595.69
2023-01-27T10:43:50.125Z,101605.03
2023-01-27T10:48:08.006Z,101590.78
2023-01-27T10:52:14.391Z,101584.75
2023-01-27T10:56:25.929Z,101586.47
2023-01-27T11:00:57.921Z,101585.94
2023-01-27T11:05:01.496Z,101582.28
2023-01-27T11:09:17.069Z,101579.25
2023-01-27T11:13:20.254Z,101576.91
2023-01-27T11:17:32.406Z,101568.06
2023-01-27T11:21:36.647Z,101568.38
2023-01-27T11:25:47.873Z,101568.31
2023-01-27T11:29:59.903Z,101558.38
2023-01-27T11:34:12.055Z,101570.38
2023-01-27T11:38:20.780Z,101573.41
2023-01-27T11:42:27.223Z,101573.25
2023-01-27T11:46:32.721Z,101571.28
2023-01-27T11:50:38.581Z,101568.69
2023-01-27T11:54:49.736Z,101570.44
2023-01-27T11:59:01.583Z,101561.94
2023-01-27T12:03:09.702Z,101566.88
2023-01-27T12:07:21.362Z,101557.66
2023-01-27T12:11:27.240Z,101559.03
2023-01-27T12:15:33.072Z,101560.75
2023-01-27T12:19:41.814Z,101555.84
2023-01-27T12:23:53.626Z,101557.94
2023-01-27T12:28:03.004Z,101563.06
2023-01-27T12:32:19.526Z,101550.19
2023-01-27T12:36:24.000Z,101551.13
2023-01-27T12:40:29.862Z,101547.59
2023-01-27T12:44:43.365Z,101540.50
2023-01-27T12:48:51.370Z,101541.06
2023-01-27T12:53:05.763Z,101538.50
2023-01-27T12:57:18.044Z,101531.94
2023-01-27T13:01:34.225Z,101536.19
2023-01-27T13:05:42.356Z,101529.91
2023-01-27T13:09:52.063Z,101526.81
2023-01-27T13:13:59.702Z,101536.66
2023-01-27T13:18:14.587Z,101527.94
2023-01-27T13:22:22.441Z,101525.41
2023-01-27T13:26:30.053Z,101530.53
2023-01-27T13:30:40.882Z,101537.56
2023-01-27T13:34:49.896Z,101533.94
2023-01-27T13:39:01.790Z,101537.94
2023-01-27T13:43:13.485Z,101541.09
2023-01-27T13:47:24.868Z,101543.97
2023-01-27T13:51:31.873Z,101550.28
2023-01-27T13:55:49.150Z,101553.13
2023-01-27T14:00:05.439Z,101556.53
2023-01-27T14:04:33.010Z,101558.94
2023-01-27T14:09:00.153Z,101557.13
2023-01-27T14:13:26.943Z,101548.00
2023-01-27T14:17:41.177Z,101549.09
2023-01-27T14:21:53.988Z,101557.63
2023-01-27T14:26:12.192Z,101549.09
2023-01-27T14:30:24.851Z,101554.53
2023-01-27T14:34:44.617Z,101556.94
2023-01-27T14:39:00.204Z,101554.22
2023-01-27T14:43:17.610Z,101557.06
2023-01-27T14:47:30.170Z,101549.09
2023-01-27T14:51:41.242Z,101555.22
2023-01-27T14:55:55.965Z,101561.34
2023-01-27T15:00:15.517Z,101555.22
2023-01-27T15:04:38.091Z,101561.97
2023-01-27T15:08:49.099Z,101560.94
2023-01-27T15:13:28.921Z,101566.47
2023-01-27T15:17:44.095Z,101568.47
2023-01-27T15:22:13.919Z,101579.34
2023-01-27T15:26:22.929Z,101577.38
2023-01-27T15:30:31.147Z,101589.06
2023-01-27T15:34:35.245Z,101592.25
2023-01-27T15:38:39.562Z,101597.38
2023-01-27T15:42:53.257Z,101604.53
2023-01-27T15:47:08.298Z,101615.13
2023-01-27T15:51:20.351Z,101616.25
2023-01-27T15:55:26.947Z,101618.25
2023-01-27T15:59:33.331Z,101616.13
2023-01-27T16:03:44.181Z,101617.00
2023-01-27T16:07:51.591Z,101618.31
2023-01-27T16:12:04.569Z,101626.28
2023-01-27T16:16:35.992Z,101629.56
2023-01-27T16:20:51.662Z,101633.16
2023-01-27T16:24:59.155Z,101635.00
2023-01-27T16:29:22.955Z,101635.56
2023-01-27T16:33:31.953Z,101640.31
2023-01-27T16:37:39.911Z,101651.16
2023-01-27T16:41:54.489Z,101648.88
2023-01-27T16:46:01.628Z,101658.88
2023-01-27T16:50:05.665Z,101669.69
2023-01-27T16:54:23.614Z,101674.53
2023-01-27T16:58:43.697Z,101678.41
2023-01-27T17:02:50.469Z,101669.41
2023-01-27T17:06:57.818Z,101677.97
2023-01-27T17:11:18.016Z,101687.53
2023-01-27T17:15:26.746Z,101685.97
2023-01-27T17:19:32.655Z,101691.09
2023-01-27T17:23:39.118Z,101694.50
2023-01-27T17:27:46.942Z,101698.63
2023-01-27T17:31:52.277Z,101699.78
2023-01-27T17:35:58.734Z,101696.81
2023-01-27T17:40:04.798Z,101699.63
2023-01-27T17:44:15.188Z,101696.50
2023-01-27T17:48:18.531Z,101712.47
2023-01-27T17:52:27.985Z,101700.09
2023-01-27T17:56:35.616Z,101707.91
2023-01-27T18:00:43.969Z,101710.47
2023-01-27T18:04:48.295Z,101709.47
2023-01-27T18:08:54.488Z,101711.59
2023-01-27T18:12:59.179Z,101719.59
2023-01-27T18:17:06.809Z,101711.59
2023-01-27T18:21:19.349Z,101716.19
2023-01-27T18:25:24.196Z,101714.75
2023-01-27T18:29:35.151Z,101725.84
2023-01-27T18:33:42.249Z,101719.88
2023-01-27T18:37:55.121Z,101730.72
2023-01-27T18:41:59.344Z,101733.88
2023-01-27T18:46:03.413Z,101734.00
2023-01-27T18:50:22.314Z,101728.56
2023-01-27T18:54:26.063Z,101729.28
2023-01-27T18:58:30.283Z,101729.28
2023-01-27T19:02:34.637Z,101725.88
2023-01-27T19:06:39.210Z,101737.69
2023-01-27T19:10:43.144Z,101735.00
2023-01-27T19:14:48.411Z,101736.69
2023-01-27T19:18:52.892Z,101740.28
2023-01-27T19:23:00.132Z,101744.69
2023-01-27T19:27:04.535Z,101758.63
2023-01-27T19:31:10.116Z,101753.50
2023-01-27T19:35:15.283Z,101751.50
2023-01-27T19:39:21.415Z,101751.78
2023-01-27T19:43:24.846Z,101757.19
2023-01-27T19:47:28.719Z,101765.22
2023-01-27T19:51:32.793Z,101772.19
2023-01-27T19:55:38.167Z,101770.91
2023-01-27T19:59:42.215Z,101766.59
2023-01-27T20:03:46.331Z,101771.75
2023-01-27T20:07:50.714Z,101779.28
2023-01-27T20:11:56.184Z,101780.41
2023-01-27T20:16:00.096Z,101780.13
2023-01-27T20:20:04.638Z,101789.25
2023-01-27T20:24:09.263Z,101779.84
2023-01-27T20:28:14.859Z,101791.13
2023-01-27T20:32:22.683Z,101781.13
2023-01-27T20:36:27.001Z,101787.09
2023-01-27T20:40:31.235Z,101787.38
2023-01-27T20:44:37.356Z,101783.69
2023-01-27T20:48:41.004Z,101789.25
2023-01-27T20:52:44.796Z,101773.41
2023-01-27T20:56:49.131Z,101771.13
2023-01-27T21:00:54.646Z,101779.81
2023-01-27T21:04:58.554Z,101781.97
2023-01-27T21:09:03.141Z,101784.50
2023-01-27T21:13:07.522Z,101786.81
2023-01-27T21:17:13.207Z,101789.91
2023-01-27T21:21:24.085Z,101789.63
2023-01-27T21:25:29.951Z,101795.06
2023-01-27T21:29:34.320Z,101781.69
2023-01-27T21:33:41.637Z,101777.09
2023-01-27T21:37:45.978Z,101776.38
2023-01-27T21:42:07.283Z,101780.22
2023-01-27T21:46:11.647Z,101769.97
2023-01-27T21:50:17.737Z,101773.94
2023-01-27T21:54:21.527Z,101772.94
2023-01-27T21:58:25.794Z,101774.22
2023-01-27T22:02:30.031Z,101775.22
2023-01-27T22:06:35.537Z,101774.50
2023-01-27T22:10:39.603Z,101769.09
2023-01-27T22:14:43.971Z,101764.81
2023-01-27T22:18:48.030Z,101771.38
2023-01-27T22:22:53.618Z,101769.41
2023-01-27T22:26:57.049Z,101767.69
2023-01-27T22:31:03.285Z,101765.25
2023-01-27T22:35:08.782Z,101773.38
2023-01-27T22:39:14.625Z,101770.78
2023-01-27T22:43:18.756Z,101766.97
2023-01-27T22:47:23.376Z,101772.66
2023-01-27T22:51:27.672Z,101767.97
2023-01-27T22:55:33.409Z,101764.53
2023-01-27T22:59:37.476Z,101770.22
2023-01-27T23:03:40.744Z,101773.75
2023-01-27T23:07:45.018Z,101773.50
2023-01-27T23:11:50.544Z,101774.63
2023-01-27T23:15:53.859Z,101774.19
2023-01-27T23:19:57.723Z,101772.78
2023-01-27T23:24:02.117Z,101779.31
2023-01-27T23:28:07.708Z,101779.91
2023-01-27T23:32:11.923Z,101779.88
2023-01-27T23:36:15.952Z,101778.72
2023-01-27T23:40:20.391Z,101786.72
2023-01-27T23:44:25.863Z,101784.00
2023-01-27T23:48:29.940Z,101780.16
2023-01-27T23:52:36.215Z,101780.84
2023-01-27T23:56:40.464Z,101789.81
